Terminal Aerodrome Forecast
Issued by NWS Duluth, MN

Home | Current Version | Previous Version | Text Only | Print | Product List | Glossary On
Versions: 1 2 3 4 5 6 7 8 9 10 11 12 13 14 15 16 17 18 19 20 21 22 23 24 25
000
FTUS43 KDLH 061100
TAFDLH
TAF
KDLH 061140Z 0612/0712 23014KT P6SM BKN080
     FM061500 25008KT P6SM FEW030
     FM061800 28012KT P6SM SCT035
     FM070200 23008KT P6SM BKN070
     FM070500 22009KT P6SM BKN040 OVC070
      TEMPO 0705/0709 3SM -SN BKN025 OVC040
     FM070900 28009KT P6SM BKN025 BKN040=

USA.gov is the U.S. government's official web portal to all federal, state and local government web resources and services.